Time;durP1;ratioP1;P1;durP2;ratioP2;P2;SDS_P1;SDS_P2;PMS_P1;PMS_P2;Temp;Humidity;BMP_temperature;BMP_pressure;BME280_temperature;BME280_humidity;BME280_pressure;Samples;Min_cycle;Max_cycle;Signal;HPM_P1;HPM_P2
2021/01/30 00:00:53;;;;;;;48.93;21.70;;;;;;;-0.65;81.25;98271.61;124950;1110;26408;-55
2021/01/30 00:03:23;;;;;;;52.40;21.47;;;;;;;-0.64;81.65;98273.89;124918;1110;23017;-57
2021/01/30 00:05:52;;;;;;;47.40;20.10;;;;;;;-0.66;81.05;98276.31;124894;1111;23012;-54
2021/01/30 00:08:23;;;;;;;54.17;22.13;;;;;;;-0.68;81.49;98270.52;124981;1110;24222;-57
2021/01/30 00:10:50;;;;;;;;;;;;;;;-0.68;81.51;98275.27;125205;1110;23202;-57
2021/01/30 00:13:20;;;;;;;51.53;20.63;;;;;;;-0.70;82.01;98278.44;125105;1110;21498;-56
2021/01/30 00:15:50;;;;;;;55.35;23.90;;;;;;;-0.69;81.56;98273.72;125025;1110;23316;-56
2021/01/30 00:18:19;;;;;;;54.30;21.63;;;;;;;-0.70;81.32;98272.21;125140;1111;23222;-54
2021/01/30 00:20:48;;;;;;;53.20;22.33;;;;;;;-0.70;81.23;98261.99;124994;1110;23024;-55
2021/01/30 00:23:19;;;;;;;54.47;25.30;;;;;;;-0.69;81.51;98260.80;124942;1110;23034;-57
2021/01/30 00:25:49;;;;;;;50.70;23.43;;;;;;;-0.69;81.63;98260.80;124887;1110;22962;-58
2021/01/30 00:28:18;;;;;;;50.67;22.93;;;;;;;-0.69;82.18;98258.05;125120;1110;23010;-58
2021/01/30 00:30:47;;;;;;;52.83;22.57;;;;;;;-0.69;81.43;98258.05;124982;1110;23061;-57
2021/01/30 00:33:16;;;;;;;58.53;23.03;;;;;;;-0.68;81.82;98258.83;124922;1110;23834;-57
2021/01/30 00:35:45;;;;;;;49.43;23.23;;;;;;;-0.68;81.66;98251.34;124995;1110;23021;-57
2021/01/30 00:38:14;;;;;;;57.73;23.13;;;;;;;-0.70;81.89;98253.03;125004;1110;23047;-56
2021/01/30 00:40:43;;;;;;;51.00;21.30;;;;;;;-0.72;82.02;98250.72;124913;1110;23132;-58
2021/01/30 00:43:13;;;;;;;54.20;22.90;;;;;;;-0.74;82.14;98246.90;125012;1110;27561;-56
2021/01/30 00:45:44;;;;;;;48.87;21.73;;;;;;;-0.76;82.49;98241.11;124901;1110;23454;-55
2021/01/30 00:48:13;;;;;;;49.17;21.30;;;;;;;-0.74;82.49;98244.16;124995;1111;23074;-55
2021/01/30 00:50:42;;;;;;;48.63;19.83;;;;;;;-0.75;81.71;98234.43;125055;1111;23077;-58
2021/01/30 00:53:10;;;;;;;47.73;17.97;;;;;;;-0.77;82.18;98232.16;125030;1110;23093;-58
2021/01/30 00:55:40;;;;;;;46.60;18.80;;;;;;;-0.78;81.65;98235.32;124998;1110;23018;-56
2021/01/30 00:58:09;;;;;;;44.90;17.73;;;;;;;-0.79;81.40;98228.33;124919;1111;23225;-55
2021/01/30 01:00:38;;;;;;;41.30;17.40;;;;;;;-0.83;81.66;98234.70;124953;1110;26405;-56
2021/01/30 01:03:08;;;;;;;39.10;15.43;;;;;;;-0.82;82.41;98235.47;124971;1110;23080;-54
2021/01/30 01:05:39;;;;;;;34.50;14.15;;;;;;;-0.83;81.82;98226.48;125043;1110;23021;-57
2021/01/30 01:08:08;;;;;;;48.33;18.17;;;;;;;-0.85;82.46;98237.12;125004;1110;25934;-56
2021/01/30 01:10:37;;;;;;;40.97;16.27;;;;;;;-0.85;81.56;98226.17;124952;1110;23073;-55
2021/01/30 01:13:07;;;;;;;41.00;15.83;;;;;;;-0.90;82.56;98226.77;124893;1110;27883;-57
2021/01/30 01:15:36;;;;;;;38.25;15.03;;;;;;;-0.90;81.96;98226.77;124916;1112;24107;-55
2021/01/30 01:18:06;;;;;;;40.57;15.33;;;;;;;-0.91;81.99;98225.23;124862;1111;23070;-55
2021/01/30 01:20:37;;;;;;;45.60;16.90;;;;;;;-0.91;82.27;98221.75;124955;1110;23051;-57
2021/01/30 01:23:06;;;;;;;41.50;15.20;;;;;;;-0.92;82.60;98226.46;124883;1110;23100;-55
2021/01/30 01:25:37;;;;;;;41.23;14.77;;;;;;;-0.96;82.06;98217.63;124986;1110;23042;-58
2021/01/30 01:28:06;;;;;;;35.03;12.30;;;;;;;-0.98;82.09;98211.06;124796;1110;23015;-57
2021/01/30 01:30:35;;;;;;;42.53;15.27;;;;;;;-1.01;82.50;98195.52;124992;1110;24818;-57
2021/01/30 01:33:05;;;;;;;41.03;15.33;;;;;;;-1.00;81.69;98200.56;125411;1110;23126;-57
2021/01/30 01:35:34;;;;;;;40.43;13.70;;;;;;;-0.99;81.89;98209.52;125149;1110;22976;-57
2021/01/30 01:38:04;;;;;;;40.13;14.93;;;;;;;-1.03;81.85;98193.23;125157;1110;23033;-58
2021/01/30 01:40:36;;;;;;;42.13;14.93;;;;;;;-1.05;82.76;98190.19;125163;1111;23660;-57
2021/01/30 01:43:10;;;;;;;44.70;16.33;;;;;;;-1.04;82.78;98190.96;125213;1110;23013;-58
2021/01/30 01:45:41;;;;;;;45.20;17.45;;;;;;;-1.05;82.48;98198.41;125084;1111;22974;-58
2021/01/30 01:48:13;;;;;;;;;;;;;;;-1.05;82.42;98187.45;124969;1110;23221;-57
2021/01/30 01:50:45;;;;;;;52.80;19.47;;;;;;;-1.02;82.21;98194.01;125235;1110;24190;-57
2021/01/30 01:53:17;;;;;;;52.85;18.85;;;;;;;-1.03;82.38;98187.77;124739;1110;23031;-55
2021/01/30 01:55:51;;;;;;;45.37;17.00;;;;;;;-1.05;82.69;98184.71;125025;1111;23145;-59
2021/01/30 01:58:23;;;;;;;48.43;18.63;;;;;;;-1.05;82.22;98179.23;125070;1110;22979;-56
2021/01/30 02:00:54;;;;;;;46.33;17.87;;;;;;;-1.04;82.80;98178.04;124960;1110;23089;-59
2021/01/30 02:03:23;;;;;;;47.20;18.30;;;;;;;-1.05;82.05;98168.28;124967;1110;23277;-56
2021/01/30 02:05:52;;;;;;;46.97;18.03;;;;;;;-1.05;82.37;98162.81;124918;1110;25376;-56
2021/01/30 02:08:23;;;;;;;43.80;19.93;;;;;;;-1.05;82.05;98160.06;124995;1110;23091;-54
2021/01/30 02:10:54;;;;;;;46.07;19.03;;;;;;;-1.05;82.23;98164.77;125203;1110;23017;-55
2021/01/30 02:13:26;;;;;;;40.60;17.17;;;;;;;-1.06;82.43;98169.52;125027;1110;23026;-56
2021/01/30 02:16:06;;;;;;;48.87;19.77;;;;;;;-1.06;82.57;98161.30;124903;1110;23010;-54
2021/01/30 02:18:48;;;;;;;46.93;16.17;;;;;;;-1.09;82.61;98164.92;124999;1110;22988;-57
2021/01/30 02:21:58;;;;;;;47.30;18.37;;;;;;;-1.11;82.96;98153.66;124974;1110;23023;-57
2021/01/30 02:24:56;;;;;;;52.63;20.23;;;;;;;-1.12;82.17;98151.38;124992;1112;23080;-55
2021/01/30 02:27:58;;;;;;;51.93;20.70;;;;;;;-1.09;83.17;98156.70;124840;1110;26836;-54
2021/01/30 02:30:52;;;;;;;60.33;22.47;;;;;;;-1.10;82.93;98160.67;125055;1112;23027;-57
2021/01/30 02:33:57;;;;;;;63.20;23.77;;;;;;;-1.09;83.00;98151.23;124779;1110;25995;-55
2021/01/30 02:36:35;;;;;;;63.50;25.97;;;;;;;-1.07;82.97;98151.55;124769;1112;23089;-55
2021/01/30 02:39:12;;;;;;;60.37;27.20;;;;;;;-1.07;82.92;98148.80;124836;1112;23713;-58
2021/01/30 02:41:47;;;;;;;62.07;28.47;;;;;;;-1.04;83.17;98131.48;124829;1112;23109;-55
2021/01/30 02:44:19;;;;;;;63.00;28.00;;;;;;;-1.05;83.08;98126.44;124789;1112;23248;-57
2021/01/30 02:46:54;;;;;;;64.80;28.67;;;;;;;-1.03;83.06;98126.75;124809;1112;25994;-57
2021/01/30 02:49:30;;;;;;;69.13;29.57;;;;;;;-1.04;82.98;98126.01;124841;1111;23562;-55
2021/01/30 02:52:06;;;;;;;74.87;33.57;;;;;;;-1.04;82.19;98120.53;124835;1112;23090;-56
2021/01/30 02:54:37;;;;;;;79.00;34.60;;;;;;;-1.10;82.60;98127.81;124702;1113;23102;-55
2021/01/30 02:57:10;;;;;;;90.15;42.10;;;;;;;-1.10;83.30;98107.88;124894;1112;23436;-59
2021/01/30 02:59:45;;;;;;;84.23;38.20;;;;;;;-1.09;82.95;98109.39;124884;1110;26572;-57
2021/01/30 03:02:16;;;;;;;91.33;43.00;;;;;;;-1.13;83.08;98104.06;124862;1112;23033;-58
2021/01/30 03:04:46;;;;;;;91.00;39.83;;;;;;;-1.12;82.43;98102.84;124755;1112;23056;-55
2021/01/30 03:07:47;;;;;;;88.85;40.60;;;;;;;-1.15;83.26;98094.77;124764;1112;23235;-54
2021/01/30 03:10:25;;;;;;;94.87;43.43;;;;;;;-1.19;83.19;98103.14;124863;1111;23194;-58
2021/01/30 03:13:02;;;;;;;92.20;42.47;;;;;;;-1.20;83.00;98106.33;125060;1110;23030;-54
2021/01/30 03:15:40;;;;;;;98.83;44.70;;;;;;;-1.21;82.56;98097.35;124951;1111;26405;-54
2021/01/30 03:18:12;;;;;;;82.73;37.50;;;;;;;-1.21;82.78;98094.61;124971;1110;22994;-57
2021/01/30 03:20:44;;;;;;;91.20;41.60;;;;;;;-1.25;83.28;98099.47;125070;1110;28677;-55
2021/01/30 03:23:15;;;;;;;90.63;41.33;;;;;;;-1.24;83.01;98089.29;124921;1110;26840;-58
2021/01/30 03:25:46;;;;;;;89.45;41.55;;;;;;;-1.23;82.56;98096.27;125049;1110;26578;-58
2021/01/30 03:28:17;;;;;;;96.37;44.00;;;;;;;-1.25;82.75;98087.75;125011;1110;26510;-58
2021/01/30 03:30:45;;;;;;;;;;;;;;;-1.26;83.20;98078.77;125199;1111;23229;-55
2021/01/30 03:33:15;;;;;;;88.70;40.50;;;;;;;-1.26;82.51;98075.30;125061;1111;21572;-55
2021/01/30 03:35:43;;;;;;;93.23;42.43;;;;;;;-1.27;82.68;98071.78;125016;1110;24135;-57
2021/01/30 03:38:13;;;;;;;92.17;42.43;;;;;;;-1.25;83.23;98065.85;125006;1110;23045;-57
2021/01/30 03:40:43;;;;;;;88.90;39.63;;;;;;;-1.26;83.61;98067.08;124960;1110;23570;-57
2021/01/30 03:43:13;;;;;;;79.97;36.23;;;;;;;-1.28;83.04;98066.77;125042;1110;23107;-54
2021/01/30 03:45:42;;;;;;;88.13;41.17;;;;;;;-1.31;82.64;98079.38;125057;1110;23008;-58
2021/01/30 03:48:12;;;;;;;81.57;37.10;;;;;;;-1.30;83.64;98074.64;124906;1110;25943;-58
2021/01/30 03:50:41;;;;;;;82.35;38.98;;;;;;;-1.29;83.10;98070.70;125178;1110;23024;-59
2021/01/30 03:53:10;;;;;;;69.77;35.23;;;;;;;-1.31;82.99;98078.61;124979;1110;23081;-54
2021/01/30 03:55:39;;;;;;;83.80;37.70;;;;;;;-1.36;83.50;98066.27;125020;1111;23896;-56
2021/01/30 03:58:08;;;;;;;93.10;40.33;;;;;;;-1.38;83.07;98067.93;125320;1110;27968;-57
2021/01/30 04:00:38;;;;;;;92.67;40.93;;;;;;;-1.37;83.00;98064.77;125096;1111;24852;-55
2021/01/30 04:03:06;;;;;;;78.43;37.57;;;;;;;-1.35;83.19;98056.09;124979;1110;23286;-58
2021/01/30 04:05:36;;;;;;;89.70;41.43;;;;;;;-1.36;83.42;98052.59;124953;1110;23032;-56
2021/01/30 04:08:06;;;;;;;89.13;38.03;;;;;;;-1.34;83.66;98049.39;125073;1110;23086;-59
2021/01/30 04:10:37;;;;;;;78.87;36.63;;;;;;;-1.31;82.81;98045.77;125001;1112;28431;-56
2021/01/30 04:13:10;;;;;;;77.60;36.63;;;;;;;-1.34;83.27;98052.90;125082;1110;23034;-57
2021/01/30 04:15:42;;;;;;;74.17;34.07;;;;;;;-1.36;83.23;98052.59;125121;1111;23074;-57
2021/01/30 04:18:13;;;;;;;77.80;34.17;;;;;;;-1.36;83.06;98046.34;125050;1112;23075;-57
2021/01/30 04:20:42;;;;;;;73.93;30.83;;;;;;;-1.37;82.76;98042.10;125010;1110;23012;-55
2021/01/30 04:23:12;;;;;;;79.27;35.23;;;;;;;-1.41;82.82;98049.69;125081;1111;23022;-57
2021/01/30 04:25:41;;;;;;;78.57;36.13;;;;;;;-1.43;83.67;98050.16;124991;1112;23245;-60
2021/01/30 04:28:10;;;;;;;72.77;32.57;;;;;;;-1.43;82.71;98035.70;124957;1110;23193;-55
2021/01/30 04:30:39;;;;;;;80.27;35.10;;;;;;;-1.44;83.40;98042.37;124945;1110;22997;-56
2021/01/30 04:33:08;;;;;;;72.17;32.33;;;;;;;-1.47;82.65;98043.29;124969;1110;22986;-55
2021/01/30 04:35:38;;;;;;;75.77;33.47;;;;;;;-1.48;83.74;98048.00;125096;1110;23228;-57
2021/01/30 04:38:07;;;;;;;78.50;35.97;;;;;;;-1.51;82.72;98043.41;124914;1110;23079;-56
2021/01/30 04:40:38;;;;;;;75.65;33.25;;;;;;;-1.53;83.12;98037.63;124967;1110;23199;-58
2021/01/30 04:43:15;;;;;;;75.87;34.10;;;;;;;-1.54;83.01;98027.14;125167;1110;27817;-57
2021/01/30 04:45:57;;;;;;;75.53;31.97;;;;;;;-1.57;83.10;98017.12;125203;1110;27810;-58
2021/01/30 04:48:38;;;;;;;78.35;35.90;;;;;;;-1.58;83.20;98026.52;124942;1110;24390;-57
2021/01/30 04:51:14;;;;;;;80.03;33.37;;;;;;;-1.58;83.40;98018.31;125049;1111;25972;-59
2021/01/30 04:54:02;;;;;;;84.30;37.40;;;;;;;-1.55;83.00;98031.84;124930;1110;23196;-57
2021/01/30 04:56:46;;;;;;;71.17;31.93;;;;;;;-1.58;82.90;98032.00;124831;1110;26122;-59
2021/01/30 04:59:25;;;;;;;72.83;30.37;;;;;;;-1.63;83.04;98029.87;124701;1110;26106;-59
2021/01/30 05:02:03;;;;;;;79.13;34.67;;;;;;;-1.68;83.33;98029.22;124703;1110;22976;-58
2021/01/30 05:04:35;;;;;;;65.40;26.70;;;;;;;-1.67;83.50;98028.02;124882;1111;23070;-56
2021/01/30 05:07:15;;;;;;;66.87;27.80;;;;;;;-1.68;83.36;98037.42;124906;1111;23086;-59
2021/01/30 05:09:52;;;;;;;76.07;32.98;;;;;;;-1.72;83.54;98036.06;124791;1111;23087;-54
2021/01/30 05:12:27;;;;;;;82.70;34.57;;;;;;;-1.74;83.26;98044.70;124853;1110;23142;-59
2021/01/30 05:15:01;;;;;;;79.50;35.30;;;;;;;-1.73;83.03;98042.73;124839;1112;23074;-61
2021/01/30 05:17:38;;;;;;;70.43;33.17;;;;;;;-1.74;83.50;98047.43;124768;1111;23196;-55
2021/01/30 05:20:11;;;;;;;70.67;32.63;;;;;;;-1.75;82.89;98048.66;124985;1110;23117;-56
2021/01/30 05:22:44;;;;;;;61.67;27.17;;;;;;;-1.75;82.84;98056.09;124887;1110;24670;-55
2021/01/30 05:25:19;;;;;;;50.03;20.53;;;;;;;-1.79;83.21;98053.50;124875;1112;23020;-57
2021/01/30 05:28:03;;;;;;;52.70;22.00;;;;;;;-1.86;83.33;98053.77;125132;1111;23028;-58
2021/01/30 05:30:52;;;;;;;64.63;30.13;;;;;;;-1.89;83.67;98062.11;124787;1111;23013;-57
2021/01/30 05:33:33;;;;;;;54.90;23.05;;;;;;;-1.92;84.03;98063.76;124801;1112;23167;-61
2021/01/30 05:36:10;;;;;;;52.17;23.57;;;;;;;-1.93;83.85;98066.95;124697;1111;23018;-57
2021/01/30 05:38:57;;;;;;;49.13;19.77;;;;;;;-1.98;82.97;98062.05;124876;1110;23023;-54
2021/01/30 05:41:39;;;;;;;47.47;19.83;;;;;;;-2.02;82.97;98059.45;125020;1111;23018;-55
2021/01/30 05:44:12;;;;;;;50.45;19.25;;;;;;;-2.03;83.83;98052.45;124874;1110;27301;-57
2021/01/30 05:46:42;;;;;;;47.60;19.17;;;;;;;-2.03;83.59;98054.45;124757;1110;27301;-59
2021/01/30 05:49:16;;;;;;;35.92;14.45;;;;;;;-2.06;84.11;98053.36;124885;1110;23158;-62
2021/01/30 05:51:54;;;;;;;36.00;15.90;;;;;;;-2.08;84.03;98057.74;124859;1110;22975;-56
2021/01/30 05:54:24;;;;;;;40.00;14.77;;;;;;;-2.12;83.96;98055.16;124775;1112;26105;-57
2021/01/30 05:56:53;;;;;;;33.83;13.08;;;;;;;-2.13;83.65;98045.41;124820;1112;23067;-54
2021/01/30 05:59:26;;;;;;;35.38;12.93;;;;;;;-2.16;83.84;98056.48;124904;1111;24730;-56
2021/01/30 06:02:13;;;;;;;30.73;11.57;;;;;;;-2.14;83.55;98052.10;124784;1111;23075;-56
2021/01/30 06:04:44;;;;;;;29.70;10.40;;;;;;;-2.16;83.86;98051.02;124791;1110;23245;-57
2021/01/30 06:07:29;;;;;;;;;;;;;;;-2.20;83.54;98055.85;124800;1111;23014;-57
2021/01/30 06:09:59;;;;;;;30.50;10.67;;;;;;;-2.18;83.59;98062.41;124655;1110;21532;-56
2021/01/30 06:12:32;;;;;;;50.88;17.00;;;;;;;-2.18;83.80;98058.91;124756;1110;24952;-58
2021/01/30 06:15:13;;;;;;;39.50;15.47;;;;;;;-2.18;83.65;98067.88;124715;1111;23071;-56
2021/01/30 06:17:43;;;;;;;44.00;16.80;;;;;;;-2.15;84.17;98077.16;124748;1110;23171;-58
2021/01/30 06:20:20;;;;;;;28.20;9.43;;;;;;;-2.19;83.91;98084.73;124758;1112;24705;-54
2021/01/30 06:23:09;;;;;;;27.37;7.70;;;;;;;-2.24;83.19;98085.28;124987;1111;24635;-57
2021/01/30 06:25:41;;;;;;;25.83;7.40;;;;;;;-2.30;83.84;98087.84;124897;1110;23027;-58
2021/01/30 06:28:25;;;;;;;24.60;6.70;;;;;;;-2.32;84.08;98081.28;124761;1110;23354;-58
2021/01/30 06:31:08;;;;;;;26.43;7.77;;;;;;;-2.35;83.04;98095.82;124704;1110;23069;-57
2021/01/30 06:33:44;;;;;;;27.03;8.70;;;;;;;-2.41;83.00;98109.30;124668;1110;23348;-57
2021/01/30 06:36:18;;;;;;;23.83;6.03;;;;;;;-2.48;83.54;98123.20;124692;1111;23076;-56
2021/01/30 06:38:52;;;;;;;18.83;5.50;;;;;;;-2.51;84.02;98132.30;124815;1110;23255;-57
2021/01/30 06:41:27;;;;;;;25.40;7.90;;;;;;;-2.56;84.03;98133.61;124768;1111;27371;-54
2021/01/30 06:44:15;;;;;;;25.00;7.77;;;;;;;-2.56;84.18;98130.11;125221;1110;28386;-57
2021/01/30 06:47:16;;;;;;;24.50;7.00;;;;;;;-2.57;83.84;98137.56;124771;1111;26428;-59
2021/01/30 06:49:48;;;;;;;22.03;7.13;;;;;;;-2.60;84.32;98157.55;124828;1111;23089;-57
2021/01/30 06:52:24;;;;;;;24.07;7.23;;;;;;;-2.61;83.44;98164.20;124894;1110;23018;-57
2021/01/30 06:55:13;;;;;;;26.30;8.63;;;;;;;-2.57;83.94;98164.88;124769;1110;22984;-57
2021/01/30 06:57:50;;;;;;;31.13;10.13;;;;;;;-2.53;84.33;98160.06;124982;1110;23065;-56
2021/01/30 07:00:30;;;;;;;24.37;7.90;;;;;;;-2.50;83.63;98172.82;124855;1110;23034;-57
2021/01/30 07:03:09;;;;;;;28.23;9.90;;;;;;;-2.49;84.50;98182.56;124719;1110;23023;-57
2021/01/30 07:05:53;;;;;;;30.63;10.10;;;;;;;-2.47;83.96;98188.34;124671;1110;26560;-58
2021/01/30 07:08:59;;;;;;;31.20;10.63;;;;;;;-2.46;84.12;98205.48;124679;1110;23144;-59
2021/01/30 07:11:52;;;;;;;29.53;10.97;;;;;;;-2.49;83.96;98226.27;124682;1111;23033;-55
2021/01/30 07:14:36;;;;;;;38.77;13.80;;;;;;;-2.52;83.43;98229.87;124885;1112;25985;-56
2021/01/30 07:17:13;;;;;;;40.20;14.57;;;;;;;-2.52;83.20;98235.33;124518;1112;23238;-58
2021/01/30 07:19:58;;;;;;;39.83;13.77;;;;;;;-2.51;84.02;98244.30;124448;1112;26240;-57
2021/01/30 07:22:37;;;;;;;38.60;15.75;;;;;;;-2.52;83.63;98242.76;124504;1112;23004;-57
2021/01/30 07:25:14;;;;;;;45.83;16.33;;;;;;;-2.53;83.56;98244.75;124486;1112;23033;-59
2021/01/30 07:27:48;;;;;;;42.93;17.70;;;;;;;-2.53;83.40;98247.48;124466;1112;23030;-57
2021/01/30 07:30:23;;;;;;;37.83;14.53;;;;;;;-2.54;84.17;98250.63;124873;1113;24539;-57
2021/01/30 07:32:59;;;;;;;45.80;16.33;;;;;;;-2.55;84.02;98251.84;124626;1112;23033;-57
2021/01/30 08:39:05;;;;;;;74.40;30.80;;;;;;;-2.67;85.19;98425.45;124479;1110;23664;-59
2021/01/30 08:41:46;;;;;;;89.23;39.27;;;;;;;-2.66;85.59;98426.22;124682;1110;23016;-59
2021/01/30 08:44:43;;;;;;;82.47;34.37;;;;;;;-2.67;85.03;98424.70;124350;1110;23094;-61
2021/01/30 08:47:21;;;;;;;81.15;36.35;;;;;;;-2.66;85.29;98429.72;124460;1111;23004;-60
2021/01/30 08:50:05;;;;;;;80.63;31.73;;;;;;;-2.65;84.70;98442.16;124576;1111;25675;-58
2021/01/30 08:52:52;;;;;;;84.10;36.75;;;;;;;-2.64;85.00;98449.17;124262;1111;27324;-61
2021/01/30 08:55:53;;;;;;;73.90;31.13;;;;;;;-2.63;84.01;98456.16;124691;1110;25260;-58
2021/01/30 08:58:47;;;;;;;66.22;26.07;;;;;;;-2.62;84.70;98478.78;124456;1110;23033;-63
2021/01/30 09:01:56;;;;;;;86.57;36.53;;;;;;;-2.62;83.96;98484.24;124787;1110;23023;-60
2021/01/30 09:05:01;;;;;;;85.60;35.23;;;;;;;-2.59;84.63;98484.13;124567;1110;23003;-62
2021/01/30 09:07:50;;;;;;;81.87;34.57;;;;;;;-2.57;84.81;98489.19;125085;1110;23206;-61
2021/01/30 09:10:44;;;;;;;87.77;38.13;;;;;;;-2.53;84.27;98503.52;125117;1111;25956;-61
2021/01/30 09:13:16;;;;;;;80.03;34.70;;;;;;;-2.51;84.20;98504.61;124750;1112;23017;-59
2021/01/30 09:16:07;;;;;;;75.77;31.23;;;;;;;-2.49;83.83;98515.88;124857;1110;23023;-58
2021/01/30 09:18:46;;;;;;;70.90;26.83;;;;;;;-2.50;83.78;98519.80;125045;1110;26392;-60
2021/01/30 09:21:22;;;;;;;77.23;30.40;;;;;;;-2.50;83.88;98517.06;125089;1109;23172;-59
2021/01/30 09:24:08;;;;;;;75.03;30.90;;;;;;;-2.51;84.15;98531.16;125460;1111;23075;-58
2021/01/30 09:26:51;;;;;;;87.17;35.60;;;;;;;-2.51;84.16;98547.55;124928;1110;23215;-58
2021/01/30 09:29:24;;;;;;;76.77;32.70;;;;;;;-2.51;84.10;98544.83;125492;1110;23027;-60
2021/01/30 09:31:57;;;;;;;63.77;25.53;;;;;;;-2.52;84.21;98549.52;125573;1110;22995;-58
2021/01/30 09:34:31;;;;;;;76.23;32.33;;;;;;;-2.49;84.04;98556.09;125011;1110;23015;-61
2021/01/30 09:37:01;;;;;;;77.63;31.20;;;;;;;-2.46;84.62;98563.41;127263;1111;23034;-60
2021/01/30 09:39:33;;;;;;;80.77;32.40;;;;;;;-2.46;83.91;98563.41;124895;1112;26440;-59
2021/01/30 09:42:14;;;;;;;67.13;28.53;;;;;;;-2.45;83.94;98573.15;124837;1110;24146;-59
2021/01/30 09:44:45;;;;;;;80.07;29.87;;;;;;;-2.44;84.27;98571.19;124932;1109;23020;-59
2021/01/30 09:47:17;;;;;;;72.70;31.90;;;;;;;-2.44;83.51;98579.39;125002;1110;26095;-57
2021/01/30 09:49:50;;;;;;;76.67;31.00;;;;;;;-2.43;83.65;98575.44;125038;1110;23001;-58
2021/01/30 09:52:21;;;;;;;73.97;32.47;;;;;;;-2.42;84.15;98583.20;125326;1111;23031;-60
2021/01/30 09:54:55;;;;;;;65.57;26.93;;;;;;;-2.39;83.26;98584.31;125005;1110;23004;-59
2021/01/30 09:57:28;;;;;;;64.77;25.67;;;;;;;-2.40;84.22;98574.59;124720;1110;23874;-58
2021/01/30 09:59:58;;;;;;;66.73;28.63;;;;;;;-2.38;83.66;98591.32;125058;1110;23126;-60
2021/01/30 10:02:30;;;;;;;73.37;30.00;;;;;;;-2.38;83.62;98585.86;124978;1112;23036;-61
2021/01/30 10:05:09;;;;;;;61.60;25.87;;;;;;;-2.34;83.33;98590.03;124641;1111;23584;-53
2021/01/30 10:07:39;;;;;;;58.50;23.20;;;;;;;-2.29;84.06;98594.95;125308;1110;23229;-57
2021/01/30 10:10:25;;;;;;;;;;;;;;;-2.24;83.82;98594.43;125335;1110;23176;-58
2021/01/30 10:12:55;;;;;;;63.90;26.57;;;;;;;-2.21;83.39;98595.52;124832;1110;21498;-57
2021/01/30 10:15:30;;;;;;;63.75;26.35;;;;;;;-2.19;83.71;98590.41;124778;1110;23195;-56
2021/01/30 10:18:08;;;;;;;55.55;22.65;;;;;;;-2.17;82.88;98599.69;124648;1110;22968;-55
2021/01/30 10:20:46;;;;;;;55.80;22.93;;;;;;;-2.14;83.64;98598.05;124666;1109;26471;-59
2021/01/30 10:23:28;;;;;;;67.40;27.80;;;;;;;-2.10;83.56;98604.19;124803;1112;23075;-56
2021/01/30 10:26:09;;;;;;;64.37;24.47;;;;;;;-2.05;83.61;98611.88;124848;1110;22997;-57
2021/01/30 10:28:52;;;;;;;67.87;25.63;;;;;;;-2.02;82.95;98617.23;124758;1112;26431;-56
2021/01/30 10:31:27;;;;;;;52.53;18.50;;;;;;;-1.99;82.96;98619.11;124689;1111;27615;-57
2021/01/30 10:34:02;;;;;;;57.50;25.73;;;;;;;-1.97;82.56;98627.65;124724;1110;23207;-56
2021/01/30 10:36:33;;;;;;;55.50;23.07;;;;;;;-1.94;83.29;98629.50;124738;1111;23064;-55
2021/01/30 10:39:03;;;;;;;58.83;23.83;;;;;;;-1.93;83.01;98633.00;124762;1111;24671;-54
2021/01/30 10:41:33;;;;;;;54.23;22.48;;;;;;;-1.91;82.90;98636.84;124681;1112;23094;-54
2021/01/30 10:44:05;;;;;;;55.05;21.97;;;;;;;-1.89;83.33;98645.39;124680;1110;26126;-56
2021/01/30 10:46:41;;;;;;;53.33;19.40;;;;;;;-1.86;82.45;98641.77;125055;1111;27304;-54
2021/01/30 10:49:18;;;;;;;48.73;19.77;;;;;;;-1.83;82.97;98659.28;124620;1112;24654;-55
2021/01/30 10:51:48;;;;;;;55.47;22.30;;;;;;;-1.81;83.12;98654.15;124674;1111;26026;-58
2021/01/30 10:54:27;;;;;;;55.92;21.93;;;;;;;-1.77;82.73;98663.02;124679;1111;23606;-54
2021/01/30 10:57:07;;;;;;;52.37;21.23;;;;;;;-1.75;82.51;98675.06;124705;1110;24536;-54
2021/01/30 10:59:48;;;;;;;53.73;21.10;;;;;;;-1.72;82.40;98674.18;124783;1110;23010;-58
2021/01/30 11:02:23;;;;;;;47.40;20.03;;;;;;;-1.67;82.14;98675.62;124570;1110;23059;-55
2021/01/30 11:05:05;;;;;;;44.53;17.53;;;;;;;-1.62;82.37;98672.36;124488;1111;23070;-56
2021/01/30 11:07:43;;;;;;;47.97;19.27;;;;;;;-1.58;82.19;98681.23;124740;1110;23030;-58
2021/01/30 11:10:32;;;;;;;50.43;19.80;;;;;;;-1.54;82.18;98687.37;124978;1110;22991;-56
2021/01/30 11:13:12;;;;;;;47.10;18.67;;;;;;;-1.54;82.48;98679.16;124802;1110;23068;-61
2021/01/30 11:15:44;;;;;;;51.83;20.73;;;;;;;-1.53;82.59;98688.88;124525;1112;23005;-55
2021/01/30 11:18:30;;;;;;;52.63;21.07;;;;;;;-1.51;82.93;98683.74;125087;1111;23062;-59
2021/01/30 11:21:01;;;;;;;54.63;19.80;;;;;;;-1.47;81.98;98689.91;124626;1110;23055;-58
2021/01/30 11:23:45;;;;;;;51.73;21.07;;;;;;;-1.48;82.29;98682.88;125107;1111;23007;-59
2021/01/30 11:26:36;;;;;;;53.37;21.77;;;;;;;-1.46;82.29;98696.13;124638;1110;25935;-58
2021/01/30 11:29:27;;;;;;;54.43;21.73;;;;;;;-1.44;82.52;98690.98;124722;1110;22950;-59
2021/01/30 11:31:58;;;;;;;54.63;22.07;;;;;;;-1.41;82.64;98699.11;124932;1110;27518;-60
2021/01/30 11:34:28;;;;;;;50.97;20.17;;;;;;;-1.39;82.74;98695.93;125415;1109;23044;-61
2021/01/30 11:36:58;;;;;;;54.58;21.50;;;;;;;-1.36;82.80;98705.98;124797;1110;27354;-58
2021/01/30 11:39:29;;;;;;;49.18;19.60;;;;;;;-1.35;82.84;98707.54;124813;1110;24653;-59
2021/01/30 11:41:59;;;;;;;52.40;20.30;;;;;;;-1.33;82.21;98705.91;124814;1110;27225;-59
2021/01/30 11:44:29;;;;;;;50.53;20.40;;;;;;;-1.29;82.41;98712.05;124658;1109;23199;-62
2021/01/30 11:46:59;;;;;;;56.68;22.48;;;;;;;-1.28;82.36;98713.56;124759;1110;27890;-58
2021/01/30 11:49:28;;;;;;;51.40;20.97;;;;;;;-1.26;81.91;98716.62;124782;1110;23150;-57
2021/01/30 11:51:58;;;;;;;46.20;18.70;;;;;;;-1.27;81.95;98717.84;124627;1108;28092;-57
2021/01/30 11:54:27;;;;;;;49.30;18.57;;;;;;;-1.26;82.37;98713.89;124619;1111;23019;-56
2021/01/30 11:56:56;;;;;;;49.60;17.83;;;;;;;-1.26;81.71;98724.09;124905;1107;23076;-57
2021/01/30 11:59:25;;;;;;;47.20;19.47;;;;;;;-1.25;81.78;98718.17;125453;1111;23139;-57
2021/01/30 12:01:55;;;;;;;42.45;15.85;;;;;;;-1.23;82.75;98717.73;124778;1111;23054;-54
2021/01/30 12:04:24;;;;;;;36.70;13.00;;;;;;;-1.21;82.54;98727.05;124693;1112;24512;-57
2021/01/30 12:06:54;;;;;;;47.50;18.25;;;;;;;-1.16;82.79;98733.97;124833;1111;23107;-57
2021/01/30 12:09:23;;;;;;;34.57;12.67;;;;;;;-1.12;82.57;98735.37;124540;1110;22974;-56
2021/01/30 12:11:53;;;;;;;42.70;15.27;;;;;;;-1.08;82.64;98729.80;124713;1110;24140;-54
2021/01/30 12:14:22;;;;;;;38.55;13.80;;;;;;;-1.05;82.45;98732.43;124666;1110;27728;-55
2021/01/30 12:16:54;;;;;;;37.90;15.10;;;;;;;-1.03;81.90;98731.98;124488;1112;23213;-57
2021/01/30 12:19:23;;;;;;;41.97;15.73;;;;;;;-1.04;81.77;98739.45;124972;1110;24815;-56
2021/01/30 12:21:52;;;;;;;43.70;16.33;;;;;;;-1.04;81.94;98735.94;124612;1110;23245;-55
2021/01/30 12:24:22;;;;;;;48.15;19.10;;;;;;;-1.03;81.95;98735.50;124586;1110;23007;-57
2021/01/30 12:26:52;;;;;;;39.65;16.10;;;;;;;-1.01;82.49;98737.79;124264;1110;23004;-57
2021/01/30 12:29:21;;;;;;;37.57;14.67;;;;;;;-0.99;82.31;98743.59;124442;1111;22956;-56
2021/01/30 12:31:50;;;;;;;36.90;13.05;;;;;;;-1.01;81.38;98743.27;124699;1110;23057;-57
2021/01/30 12:34:20;;;;;;;42.20;14.75;;;;;;;-1.02;82.18;98731.56;124750;1110;23192;-57
2021/01/30 12:36:49;;;;;;;41.02;15.68;;;;;;;-0.99;82.18;98732.64;124916;1110;27533;-58
2021/01/30 12:39:19;;;;;;;37.27;14.80;;;;;;;-0.96;82.69;98726.30;124699;1110;23056;-56
2021/01/30 12:41:48;;;;;;;34.43;11.97;;;;;;;-0.93;82.33;98726.19;125084;1110;23055;-58
2021/01/30 12:44:22;;;;;;;32.07;11.33;;;;;;;-0.90;81.69;98727.28;124878;1109;27504;-61
2021/01/30 12:46:52;;;;;;;30.77;12.37;;;;;;;-0.88;81.77;98735.83;124773;1110;23003;-61
2021/01/30 12:49:22;;;;;;;31.20;12.13;;;;;;;-0.84;82.22;98736.48;124784;1111;23003;-60
2021/01/30 12:51:52;;;;;;;30.67;10.60;;;;;;;-0.82;81.27;98748.55;124839;1110;23027;-59